Time;durP1;ratioP1;P1;durP2;ratioP2;P2;SDS_P1;SDS_P2;PMS_P1;PMS_P2;Temp;Humidity;BMP_temperature;BMP_pressure;BME280_temperature;BME280_humidity;BME280_pressure;Samples;Min_cycle;Max_cycle;Signal;HPM_P1;HPM_P2
2022/03/13 00:00:32;;;;;;;14.75;5.90;;;;;;;9.83;100.00;97897.03;6162886;23;20047;-84
2022/03/13 00:03:01;;;;;;;19.75;6.00;;;;;;;9.84;100.00;97897.84;6215789;23;20430;-82
2022/03/13 00:05:27;;;;;;;13.55;6.00;;;;;;;10.03;100.00;97889.97;6217725;23;20335;-82
2022/03/13 00:07:56;;;;;;;14.02;5.43;;;;;;;9.68;100.00;97875.63;6217929;23;20013;-83
2022/03/13 00:10:27;;;;;;;13.98;6.30;;;;;;;9.90;100.00;97901.41;6190285;23;20024;-83
2022/03/13 00:12:54;;;;;;;13.77;5.68;;;;;;;9.95;100.00;97876.16;6166512;23;20020;-82
2022/03/13 00:15:38;;;;;;;13.95;5.72;;;;;;;9.84;100.00;97890.78;6191035;23;20008;-82
2022/03/13 00:18:04;;;;;;;13.45;5.15;;;;;;;9.82;100.00;97878.91;6191112;23;20483;-82
2022/03/13 00:20:32;;;;;;;20.25;5.47;;;;;;;9.90;100.00;97875.19;6191497;23;20066;-82
2022/03/13 00:22:58;;;;;;;11.50;4.43;;;;;;;9.90;100.00;97869.94;6217276;23;20012;-83
2022/03/13 00:25:25;;;;;;;17.15;6.53;;;;;;;9.90;100.00;97872.56;6191350;23;20021;-82
2022/03/13 00:27:51;;;;;;;12.45;4.93;;;;;;;9.75;100.00;97865.88;6217427;23;20454;-82
2022/03/13 00:30:17;;;;;;;13.90;5.45;;;;;;;9.86;100.00;97866.97;6190771;23;20016;-81
2022/03/13 00:32:43;;;;;;;11.45;5.43;;;;;;;9.85;100.00;97874.03;6191496;23;20021;-82
2022/03/13 00:35:11;;;;;;;14.20;5.50;;;;;;;9.89;100.00;97856.03;6191982;23;20020;-82
2022/03/13 00:37:42;;;;;;;12.55;5.20;;;;;;;9.85;100.00;97854.88;6190777;23;20087;-81
2022/03/13 00:40:08;;;;;;;13.38;5.97;;;;;;;10.09;100.00;97868.94;6217706;23;20008;-81
2022/03/13 00:42:34;;;;;;;11.30;5.72;;;;;;;10.10;100.00;97852.16;6190405;23;20091;-80
2022/03/13 00:45:00;;;;;;;14.13;5.57;;;;;;;10.06;100.00;97861.50;6191464;23;20346;-83
2022/03/13 00:47:26;;;;;;;17.40;5.78;;;;;;;10.07;100.00;97865.72;6191292;23;20427;-80
2022/03/13 00:49:51;;;;;;;11.82;5.93;;;;;;;10.06;100.00;97847.56;6190736;23;20008;-81
2022/03/13 00:52:17;;;;;;;16.17;6.28;;;;;;;10.05;100.00;97843.34;6191617;23;20047;-84
2022/03/13 00:54:43;;;;;;;10.68;6.43;;;;;;;10.26;100.00;97848.13;6191404;23;20478;-83
2022/03/13 00:57:09;;;;;;;9.40;5.53;;;;;;;10.10;100.00;97825.94;6217310;23;20012;-82
2022/03/13 00:59:35;;;;;;;14.57;6.10;;;;;;;10.24;100.00;97833.66;6166436;23;20150;-82
2022/03/13 01:02:02;;;;;;;12.70;6.35;;;;;;;10.32;100.00;97840.38;6218642;23;20067;-83
2022/03/13 01:04:28;;;;;;;12.05;6.15;;;;;;;10.25;100.00;97840.50;6192174;23;20024;-82
2022/03/13 01:06:54;;;;;;;9.05;5.93;;;;;;;10.35;100.00;97813.75;6191797;23;20008;-82
2022/03/13 01:09:19;;;;;;;13.45;6.18;;;;;;;10.60;100.00;97837.22;6191050;23;20036;-82
2022/03/13 01:11:45;;;;;;;15.80;6.57;;;;;;;10.63;100.00;97831.53;6166733;23;20020;-81
2022/03/13 01:14:12;;;;;;;12.90;6.50;;;;;;;10.47;100.00;97817.22;6217504;23;20008;-84
2022/03/13 01:16:40;;;;;;;11.10;6.72;;;;;;;10.57;100.00;97825.34;6216143;23;20059;-83
2022/03/13 01:19:07;;;;;;;12.27;6.90;;;;;;;10.56;100.00;97831.63;6189351;23;20055;-82
2022/03/13 01:21:37;;;;;;;11.38;6.65;;;;;;;10.77;100.00;97826.88;6189627;23;20009;-82
2022/03/13 01:24:18;;;;;;;14.02;7.72;;;;;;;10.41;100.00;97797.13;6189701;23;20013;-81
2022/03/13 01:26:44;;;;;;;12.00;6.97;;;;;;;10.68;100.00;97818.53;6190533;23;20063;-82
2022/03/13 01:29:13;;;;;;;16.10;7.40;;;;;;;10.79;100.00;97814.31;6217175;23;20070;-80
2022/03/13 01:31:48;;;;;;;14.18;7.65;;;;;;;10.56;100.00;97796.69;6192820;23;20008;-83
2022/03/13 01:34:35;;;;;;;11.93;7.88;;;;;;;10.51;100.00;97807.06;6222122;23;20095;-82
2022/03/13 01:37:11;;;;;;;14.40;7.97;;;;;;;10.51;100.00;97807.84;6222236;23;20060;-81
2022/03/13 01:39:52;;;;;;;14.80;8.50;;;;;;;10.81;100.00;97806.25;6191150;23;20019;-82
2022/03/13 01:42:18;;;;;;;15.10;8.27;;;;;;;10.59;100.00;97787.59;6189109;23;20028;-82
2022/03/13 01:44:44;;;;;;;11.30;7.90;;;;;;;10.49;100.00;97798.63;6164322;23;20435;-82
2022/03/13 01:47:10;;;;;;;12.68;8.00;;;;;;;10.51;100.00;97786.88;6216181;23;20389;-81
2022/03/13 01:49:36;;;;;;;14.35;8.52;;;;;;;10.83;100.00;97798.94;6189281;23;20055;-82
2022/03/13 01:52:03;;;;;;;22.60;8.65;;;;;;;10.83;100.00;97785.81;6189710;23;20343;-81
2022/03/13 01:54:32;;;;;;;14.10;8.50;;;;;;;10.51;100.00;97776.38;6164305;23;20028;-81
2022/03/13 01:57:00;;;;;;;14.40;8.50;;;;;;;10.41;100.00;97776.94;6189328;23;20092;-83
2022/03/13 01:59:30;;;;;;;13.13;8.38;;;;;;;10.73;100.00;97775.88;6164096;23;20518;-82
2022/03/13 02:02:07;;;;;;;16.00;8.95;;;;;;;10.93;100.00;97772.91;6214726;23;20035;-82
2022/03/13 02:04:41;;;;;;;17.25;9.32;;;;;;;11.04;100.00;97778.41;6188929;23;20339;-81
2022/03/13 02:07:06;;;;;;;18.75;9.65;;;;;;;10.84;100.00;97771.66;6163735;23;20017;-82
2022/03/13 02:09:33;;;;;;;18.13;9.98;;;;;;;10.41;100.00;97792.66;6164017;23;20791;-81
2022/03/13 02:12:00;;;;;;;18.10;9.85;;;;;;;10.52;100.00;97756.19;6189049;23;20023;-81
2022/03/13 02:14:26;;;;;;;17.80;10.82;;;;;;;10.65;100.00;97771.75;6215814;23;20015;-82
2022/03/13 02:16:53;;;;;;;19.42;9.77;;;;;;;10.69;100.00;97766.81;6215749;23;20019;-82
2022/03/13 02:19:19;;;;;;;29.27;11.32;;;;;;;10.61;100.00;97754.88;6215705;23;20015;-82
2022/03/13 02:21:49;;;;;;;20.42;10.50;;;;;;;10.90;100.00;97768.13;6164362;23;20024;-83
2022/03/13 02:24:16;;;;;;;21.75;11.43;;;;;;;10.97;100.00;97755.66;6188581;23;20446;-82
2022/03/13 02:26:55;;;;;;;22.50;11.10;;;;;;;10.78;100.00;97754.16;6163937;23;20040;-82
2022/03/13 02:29:21;;;;;;;19.65;12.13;;;;;;;10.63;100.00;97757.25;6215724;23;20021;-83
2022/03/13 02:31:47;;;;;;;16.33;11.50;;;;;;;10.69;100.00;97738.78;6189342;23;20012;-82
2022/03/13 02:34:15;;;;;;;18.63;11.27;;;;;;;10.86;100.00;97749.38;6215425;23;20495;-79
2022/03/13 02:36:43;;;;;;;17.67;12.13;;;;;;;10.81;100.00;97748.50;6188495;23;20438;-82
2022/03/13 02:39:11;;;;;;;18.90;12.45;;;;;;;10.94;100.00;97747.47;6189126;23;20338;-82
2022/03/13 02:41:40;;;;;;;18.58;12.43;;;;;;;10.71;100.00;97744.59;6164376;23;20427;-82
2022/03/13 02:44:10;;;;;;;18.17;12.30;;;;;;;10.77;100.00;97731.56;6215523;23;20391;-82
2022/03/13 02:46:48;;;;;;;18.35;11.70;;;;;;;10.75;100.00;97728.38;6215357;23;20012;-82
2022/03/13 02:49:17;;;;;;;17.67;11.52;;;;;;;10.78;100.00;97726.09;6188665;23;20040;-84
2022/03/13 02:51:46;;;;;;;20.02;12.05;;;;;;;10.71;100.00;97723.59;6216647;23;20024;-82
2022/03/13 02:54:13;;;;;;;20.50;12.55;;;;;;;10.94;100.00;97716.75;6164586;23;20026;-84
2022/03/13 02:56:39;;;;;;;18.80;11.52;;;;;;;10.78;100.00;97702.50;6189144;23;20015;-83
2022/03/13 02:59:04;;;;;;;19.05;12.32;;;;;;;10.61;100.00;97680.59;6165223;23;20016;-83
2022/03/13 03:01:31;;;;;;;17.17;12.55;;;;;;;10.75;100.00;97702.13;6189756;23;20066;-83
2022/03/13 03:04:00;;;;;;;22.35;12.52;;;;;;;10.62;100.00;97709.22;6215257;23;20008;-82
2022/03/13 03:06:31;;;;;;;17.95;11.70;;;;;;;10.86;100.00;97709.22;6216291;23;20020;-83
2022/03/13 03:08:58;;;;;;;16.67;10.85;;;;;;;10.87;100.00;97705.56;6163830;23;20339;-83
2022/03/13 03:11:24;;;;;;;18.95;11.85;;;;;;;10.82;100.00;97705.47;6164428;23;20017;-82
2022/03/13 03:13:49;;;;;;;15.27;11.82;;;;;;;10.67;100.00;97701.47;6189313;23;20014;-85
2022/03/13 03:16:15;;;;;;;15.68;11.50;;;;;;;10.89;100.00;97698.25;6215969;23;20012;-83
2022/03/13 03:18:41;;;;;;;19.63;12.38;;;;;;;10.93;100.00;97698.59;6189849;23;20431;-82
2022/03/13 03:21:07;;;;;;;18.88;11.93;;;;;;;10.95;100.00;97692.09;6164644;23;20016;-83
2022/03/13 03:23:33;;;;;;;14.57;11.70;;;;;;;10.89;100.00;97693.00;6163549;23;20012;-83
2022/03/13 03:25:59;;;;;;;16.20;12.18;;;;;;;10.75;100.00;97686.38;6164003;23;20147;-84
2022/03/13 03:28:25;;;;;;;14.68;11.10;;;;;;;10.87;100.00;97679.31;6164100;23;20056;-82
2022/03/13 03:30:50;;;;;;;18.27;11.93;;;;;;;10.60;100.00;97668.50;6188447;23;20078;-82
2022/03/13 03:33:16;;;;;;;16.42;11.38;;;;;;;11.03;100.00;97687.53;6215068;23;20013;-81
2022/03/13 03:35:42;;;;;;;18.00;12.00;;;;;;;10.99;100.00;97682.72;6214842;23;20087;-81
2022/03/13 03:38:08;;;;;;;18.65;11.70;;;;;;;10.58;100.00;97681.81;6186721;23;20087;-81
2022/03/13 03:40:34;;;;;;;16.95;12.07;;;;;;;10.79;100.00;97683.09;6188586;23;20016;-81
2022/03/13 03:43:04;;;;;;;21.85;12.32;;;;;;;10.78;100.00;97685.94;6187864;23;20016;-81
2022/03/13 03:45:31;;;;;;;22.13;12.65;;;;;;;10.55;100.00;97669.16;6187712;23;20009;-81
2022/03/13 03:48:00;;;;;;;14.38;11.05;;;;;;;10.63;100.00;97660.16;6215263;23;20387;-81
2022/03/13 03:50:26;;;;;;;19.08;11.35;;;;;;;10.98;100.00;97662.75;6188382;23;20009;-81
2022/03/13 03:52:55;;;;;;;19.60;13.18;;;;;;;11.12;100.00;97665.13;6163049;23;20334;-81
2022/03/13 03:55:22;;;;;;;14.60;11.52;;;;;;;11.21;100.00;97676.06;6188344;23;20012;-81
2022/03/13 03:57:49;;;;;;;15.02;11.82;;;;;;;11.09;100.00;97679.50;6213988;23;20435;-81
2022/03/13 04:00:15;;;;;;;18.67;12.20;;;;;;;10.93;100.00;97660.00;6187995;23;20016;-83
2022/03/13 04:02:42;;;;;;;17.02;12.15;;;;;;;11.10;100.00;97675.88;6188262;23;20015;-81
2022/03/13 04:05:08;;;;;;;17.00;11.88;;;;;;;11.11;100.00;97674.03;6215175;23;20004;-80
2022/03/13 04:07:36;;;;;;;17.55;11.40;;;;;;;10.91;100.00;97677.81;6187722;23;20514;-83
2022/03/13 04:10:08;;;;;;;18.88;12.20;;;;;;;10.97;100.00;97663.75;6188858;23;20012;-81
2022/03/13 04:12:34;;;;;;;15.98;11.63;;;;;;;11.10;100.00;97675.06;6215035;23;20096;-82
2022/03/13 04:15:04;;;;;;;14.90;11.60;;;;;;;11.11;100.00;97660.91;6187950;23;20047;-80
2022/03/13 04:17:30;;;;;;;16.35;12.05;;;;;;;11.17;100.00;97664.44;6187967;23;20059;-82
2022/03/13 04:19:57;;;;;;;18.40;11.77;;;;;;;10.92;100.00;97660.25;6194316;23;20087;-87
2022/03/13 04:22:22;;;;;;;14.35;11.43;;;;;;;11.12;100.00;97654.63;6170915;23;20023;-90
2022/03/13 04:24:48;;;;;;;16.23;10.57;;;;;;;11.08;100.00;97666.63;6223528;23;20032;-88
2022/03/13 04:27:14;;;;;;;15.07;11.95;;;;;;;11.10;100.00;97670.63;6199520;23;20004;-88
2022/03/13 04:29:40;;;;;;;16.30;11.25;;;;;;;11.12;100.00;97670.38;6191484;23;20394;-81
2022/03/13 04:32:08;;;;;;;16.48;11.48;;;;;;;10.96;100.00;97656.91;6162423;23;20450;-81
2022/03/13 04:34:34;;;;;;;14.95;11.07;;;;;;;11.14;100.00;97665.69;6214730;23;20008;-84
2022/03/13 04:37:00;;;;;;;17.83;10.70;;;;;;;10.96;100.00;97638.53;6214106;23;20363;-83
2022/03/13 04:39:27;;;;;;;17.95;11.55;;;;;;;10.73;100.00;97659.59;6188201;23;20036;-82
2022/03/13 04:41:54;;;;;;;17.40;11.55;;;;;;;11.11;100.00;97674.84;6163232;23;20021;-83
2022/03/13 04:44:20;;;;;;;17.13;11.82;;;;;;;10.92;100.00;97666.28;6214106;23;20031;-83
2022/03/13 04:46:45;;;;;;;15.85;11.48;;;;;;;10.72;100.00;97661.41;6214837;23;20014;-82
2022/03/13 04:49:12;;;;;;;16.50;12.60;;;;;;;10.90;100.00;97651.78;6215863;23;20013;-82
2022/03/13 04:51:38;;;;;;;16.50;12.05;;;;;;;10.88;100.00;97651.22;6216052;23;20016;-82
2022/03/13 04:54:08;;;;;;;13.25;10.52;;;;;;;10.84;100.00;97653.53;6217120;23;20016;-82
2022/03/13 04:56:34;;;;;;;18.05;11.52;;;;;;;10.98;100.00;97654.06;6189662;23;20012;-83
2022/03/13 04:59:00;;;;;;;15.20;11.93;;;;;;;10.94;100.00;97645.84;6190213;23;20083;-83
2022/03/13 05:01:26;;;;;;;13.15;11.23;;;;;;;10.74;100.00;97632.31;6190752;23;20012;-82
2022/03/13 05:03:53;;;;;;;14.38;11.88;;;;;;;10.73;100.00;97635.97;6215930;23;20013;-83
2022/03/13 05:06:19;;;;;;;17.75;12.20;;;;;;;10.74;100.00;97633.13;6189647;23;20051;-83
2022/03/13 05:08:45;;;;;;;18.08;12.10;;;;;;;10.78;100.00;97641.31;6165194;23;20016;-83
2022/03/13 05:11:11;;;;;;;15.75;12.10;;;;;;;10.78;100.00;97643.94;6215822;23;20439;-83
2022/03/13 05:13:39;;;;;;;18.48;12.55;;;;;;;10.68;100.00;97645.31;6190559;23;20434;-82
2022/03/13 05:16:05;;;;;;;15.57;12.15;;;;;;;10.65;100.00;97639.72;6188465;23;20035;-82
2022/03/13 05:18:32;;;;;;;16.50;12.10;;;;;;;10.81;100.00;97643.50;6216198;23;20004;-81
2022/03/13 05:20:57;;;;;;;17.25;12.27;;;;;;;10.81;100.00;97635.63;6215906;23;20008;-82
2022/03/13 05:23:23;;;;;;;15.32;12.32;;;;;;;10.81;100.00;97639.03;6215446;23;20439;-82
2022/03/13 05:25:49;;;;;;;16.92;11.95;;;;;;;10.69;100.00;97631.19;6164640;23;20075;-81
2022/03/13 05:28:15;;;;;;;15.18;12.38;;;;;;;10.92;100.00;97640.03;6215940;23;20013;-83
2022/03/13 05:30:42;;;;;;;15.38;11.77;;;;;;;10.77;100.00;97631.84;6164387;23;20078;-82
2022/03/13 05:33:07;;;;;;;17.05;12.23;;;;;;;10.53;100.00;97624.00;6190428;23;20342;-83
2022/03/13 05:35:33;;;;;;;18.60;11.77;;;;;;;10.82;100.00;97624.88;6165467;23;20020;-83
2022/03/13 05:38:00;;;;;;;19.00;11.52;;;;;;;10.91;100.00;97627.94;6219114;23;20468;-83
2022/03/13 05:40:26;;;;;;;16.60;12.20;;;;;;;10.63;100.00;97629.47;6193890;23;20052;-83
2022/03/13 05:42:56;;;;;;;18.65;11.70;;;;;;;10.73;100.00;97643.84;6167641;23;20123;-83
2022/03/13 05:45:23;;;;;;;16.83;11.70;;;;;;;10.53;100.00;97622.19;6190504;23;20085;-84
2022/03/13 05:47:51;;;;;;;15.00;11.77;;;;;;;10.65;100.00;97648.41;6190143;23;20351;-84
2022/03/13 05:50:19;;;;;;;18.42;12.23;;;;;;;10.82;100.00;97629.34;6165092;23;20048;-84
2022/03/13 05:52:46;;;;;;;14.13;11.82;;;;;;;10.61;100.00;97642.03;6217442;23;20013;-84
2022/03/13 05:55:14;;;;;;;18.10;12.35;;;;;;;10.33;100.00;97627.72;6218973;23;20013;-85
2022/03/13 05:57:40;;;;;;;17.05;11.98;;;;;;;10.34;100.00;97637.19;6165652;23;20012;-84
2022/03/13 06:00:09;;;;;;;18.38;12.68;;;;;;;10.42;100.00;97662.31;6215795;23;20012;-84
2022/03/13 06:02:36;;;;;;;16.80;12.63;;;;;;;10.09;100.00;97648.69;6189845;23;20396;-84
2022/03/13 06:05:03;;;;;;;19.80;13.63;;;;;;;10.18;100.00;97654.41;6189782;23;20504;-82
2022/03/13 06:07:28;;;;;;;18.17;13.75;;;;;;;10.34;100.00;97654.78;6216448;23;20021;-84
2022/03/13 06:09:55;;;;;;;20.70;13.60;;;;;;;10.31;100.00;97663.06;6164294;23;20110;-83
2022/03/13 06:12:21;;;;;;;22.02;15.02;;;;;;;10.30;100.00;97654.41;6164586;23;20091;-83
2022/03/13 06:14:47;;;;;;;18.42;13.85;;;;;;;10.17;100.00;97654.63;6189560;23;20059;-83
2022/03/13 06:17:12;;;;;;;20.77;15.27;;;;;;;10.10;100.00;97634.56;6188099;23;20016;-83
2022/03/13 06:19:42;;;;;;;19.67;15.48;;;;;;;10.36;100.00;97657.97;6216740;23;20091;-82
2022/03/13 06:22:10;;;;;;;19.70;15.35;;;;;;;10.05;100.00;97641.50;6189888;23;20095;-82
2022/03/13 06:24:36;;;;;;;18.05;13.60;;;;;;;10.13;100.00;97649.84;6164224;23;20016;-84
2022/03/13 06:27:02;;;;;;;20.55;15.15;;;;;;;10.39;100.00;97644.38;6190095;23;20346;-83
2022/03/13 06:29:28;;;;;;;22.15;14.50;;;;;;;10.32;100.00;97654.97;6164213;23;20012;-84
2022/03/13 06:31:54;;;;;;;20.70;14.50;;;;;;;10.24;100.00;97650.88;6216109;23;20090;-84
2022/03/13 06:34:21;;;;;;;18.55;13.65;;;;;;;10.16;100.00;97648.59;6215904;23;20015;-83
2022/03/13 06:36:47;;;;;;;17.90;13.00;;;;;;;10.35;100.00;97659.78;6163863;23;20068;-81
2022/03/13 06:39:12;;;;;;;19.98;14.23;;;;;;;10.40;100.00;97659.09;6188950;23;20300;-82
2022/03/13 06:41:40;;;;;;;18.77;13.20;;;;;;;10.42;100.00;97663.13;6189389;23;20062;-84
2022/03/13 06:44:06;;;;;;;20.80;15.23;;;;;;;10.23;100.00;97664.22;6188637;23;20020;-84
2022/03/13 06:46:32;;;;;;;19.27;14.15;;;;;;;10.29;100.00;97663.31;6164328;23;20023;-83
2022/03/13 06:48:59;;;;;;;22.10;15.60;;;;;;;10.50;100.00;97666.44;6164177;23;20012;-83
2022/03/13 06:51:25;;;;;;;25.60;15.93;;;;;;;10.52;100.00;97664.38;6188159;23;20910;-83
2022/03/13 06:53:52;;;;;;;19.75;14.88;;;;;;;10.67;100.00;97682.28;6188276;23;20095;-85
2022/03/13 06:56:18;;;;;;;19.77;14.48;;;;;;;10.29;100.00;97673.81;6215057;23;20023;-85
2022/03/13 06:58:44;;;;;;;24.45;16.70;;;;;;;10.62;100.00;97674.31;6217288;23;20032;-82
2022/03/13 07:01:10;;;;;;;18.50;13.45;;;;;;;10.54;100.00;97670.19;6189717;23;20076;-85
2022/03/13 07:03:36;;;;;;;18.75;13.25;;;;;;;10.56;100.00;97678.63;6218529;23;20034;-82
2022/03/13 07:06:05;;;;;;;18.05;13.27;;;;;;;10.71;100.00;97665.84;6166369;23;20016;-85
2022/03/13 07:08:32;;;;;;;15.05;12.02;;;;;;;10.82;100.00;97666.09;6217199;23;20423;-83
2022/03/13 07:10:59;;;;;;;12.77;10.82;;;;;;;10.94;100.00;97679.19;6189463;23;20461;-84
2022/03/13 07:13:26;;;;;;;11.10;9.30;;;;;;;10.99;100.00;97680.09;6192820;23;20020;-86
2022/03/13 07:15:53;;;;;;;15.48;9.95;;;;;;;10.75;100.00;97654.91;6195637;23;20019;-86
2022/03/13 07:18:19;;;;;;;14.60;9.85;;;;;;;11.08;100.00;97670.03;6196123;23;20084;-86
2022/03/13 07:20:45;;;;;;;13.40;10.35;;;;;;;11.15;100.00;97656.78;6220264;23;19996;-84
2022/03/13 07:23:10;;;;;;;11.20;10.02;;;;;;;10.98;100.00;97659.31;6194435;23;20012;-87
2022/03/13 07:25:36;;;;;;;10.77;8.38;;;;;;;10.94;100.00;97643.22;6193817;23;20013;-84
2022/03/13 07:28:02;;;;;;;13.82;11.20;;;;;;;11.16;100.00;97668.09;6169660;23;20435;-85
2022/03/13 07:30:27;;;;;;;10.80;9.40;;;;;;;11.27;100.00;97657.53;6170227;23;20072;-87
2022/03/13 07:32:53;;;;;;;11.85;9.30;;;;;;;11.14;100.00;97642.84;6170931;23;21365;-83
2022/03/13 07:35:22;;;;;;;12.70;9.27;;;;;;;11.26;100.00;97663.84;6191844;23;20325;-86
2022/03/13 07:37:48;;;;;;;15.05;8.98;;;;;;;11.27;100.00;97651.47;6168625;23;20013;-89
2022/03/13 07:40:14;;;;;;;15.40;9.95;;;;;;;11.53;100.00;97665.13;6201340;23;20091;-86
2022/03/13 07:42:39;;;;;;;16.05;9.88;;;;;;;11.13;100.00;97630.75;6199482;23;20096;-88
2022/03/13 07:45:06;;;;;;;15.90;9.77;;;;;;;10.88;100.00;97604.78;6135857;23;20025;-88
2022/03/13 07:47:32;;;;;;;13.75;10.50;;;;;;;11.12;100.00;97644.09;6120436;23;20018;-90
2022/03/13 07:49:58;;;;;;;14.90;9.55;;;;;;;11.46;100.00;97675.78;6125521;23;20089;-90
2022/03/13 07:52:31;;;;;;;14.63;11.02;;;;;;;11.35;100.00;97677.41;6141741;23;20036;-89
2022/03/13 07:54:57;;;;;;;15.98;9.40;;;;;;;11.34;100.00;97615.38;6129770;23;20009;-89
2022/03/13 07:57:24;;;;;;;12.10;9.95;;;;;;;11.67;100.00;97676.94;6146988;23;20042;-88
2022/03/13 07:59:49;;;;;;;11.00;9.30;;;;;;;11.56;100.00;97657.53;6124134;23;20005;-90
2022/03/13 08:02:15;;;;;;;14.52;11.10;;;;;;;11.71;100.00;97651.78;6144929;23;20036;-90
2022/03/13 08:04:42;;;;;;;13.63;10.05;;;;;;;11.58;100.00;97642.34;6148428;23;20049;-90
2022/03/13 08:07:08;;;;;;;13.02;9.95;;;;;;;11.55;100.00;97642.81;6123449;23;20336;-88
2022/03/13 08:09:36;;;;;;;13.98;10.07;;;;;;;11.71;100.00;97640.47;6150161;23;20022;-88
2022/03/13 08:12:03;;;;;;;12.88;10.27;;;;;;;11.72;100.00;97623.66;6170514;23;20009;-88
2022/03/13 08:14:29;;;;;;;11.25;9.10;;;;;;;11.91;100.00;97679.47;6120685;23;20013;-87
2022/03/13 08:16:54;;;;;;;13.15;10.30;;;;;;;11.76;100.00;97652.91;6128948;23;20028;-85
2022/03/13 08:19:21;;;;;;;13.25;10.32;;;;;;;11.40;100.00;97650.44;6142875;23;20081;-87
2022/03/13 08:21:47;;;;;;;17.23;10.40;;;;;;;11.84;100.00;97682.25;6139782;23;20013;-88
2022/03/13 08:24:14;;;;;;;19.13;10.35;;;;;;;11.64;100.00;97666.09;6141174;23;20065;-88
2022/03/13 08:26:40;;;;;;;14.60;10.32;;;;;;;11.76;100.00;97672.09;6112902;23;20056;-86
2022/03/13 08:29:07;;;;;;;14.13;9.35;;;;;;;11.74;100.00;97676.78;6115794;23;20352;-89
2022/03/13 08:31:36;;;;;;;15.05;10.27;;;;;;;11.75;100.00;97667.88;6117434;23;20013;-88
2022/03/13 08:34:07;;;;;;;12.52;9.63;;;;;;;11.37;100.00;97656.94;6170385;23;20014;-90
2022/03/13 08:39:22;;;;;;;11.73;9.35;;;;;;;11.02;100.00;97605.31;6150220;23;20406;-89
2022/03/13 08:41:58;;;;;;;11.27;10.13;;;;;;;11.73;100.00;97688.34;6158900;23;20017;-89
2022/03/13 08:44:30;;;;;;;12.60;9.95;;;;;;;11.66;100.00;97656.16;6175049;23;20005;-91
2022/03/13 08:46:56;;;;;;;13.18;10.07;;;;;;;11.58;100.00;97652.84;6150618;23;20462;-87
2022/03/13 08:49:29;;;;;;;12.60;9.60;;;;;;;11.68;100.00;97656.72;6183020;23;19997;-89
2022/03/13 08:52:00;;;;;;;11.27;9.40;;;;;;;11.51;100.00;97690.84;6148382;23;20024;-81
2022/03/13 08:54:27;;;;;;;10.45;9.35;;;;;;;11.74;100.00;97689.16;6163392;23;20443;-83
2022/03/13 08:56:53;;;;;;;14.82;10.02;;;;;;;11.70;100.00;97670.41;6160263;23;20020;-81
2022/03/13 08:59:20;;;;;;;14.15;9.23;;;;;;;11.70;100.00;97668.59;6161925;23;20013;-83
2022/03/13 09:01:47;;;;;;;11.77;8.82;;;;;;;12.24;100.00;97679.78;6163617;23;20036;-82
2022/03/13 09:04:13;;;;;;;12.95;8.45;;;;;;;12.53;100.00;97687.56;6189581;23;20016;-81
2022/03/13 09:06:39;;;;;;;10.85;8.23;;;;;;;12.38;100.00;97696.84;6164633;23;20064;-83
2022/03/13 09:09:09;;;;;;;11.63;8.43;;;;;;;12.64;100.00;97697.22;6194553;23;20013;-82
2022/03/13 09:11:36;;;;;;;11.43;8.15;;;;;;;12.92;100.00;97706.03;6161434;23;20013;-81
2022/03/13 09:14:05;;;;;;;11.15;8.05;;;;;;;12.73;100.00;97681.00;6164530;23;20008;-81
2022/03/13 09:16:38;;;;;;;11.20;8.18;;;;;;;12.76;100.00;97675.25;6189467;23;20041;-80
2022/03/13 09:19:04;;;;;;;10.93;7.70;;;;;;;13.05;100.00;97688.28;6168214;23;20009;-80
2022/03/13 09:21:31;;;;;;;9.40;7.45;;;;;;;13.12;100.00;97670.44;6197652;23;20009;-81
2022/03/13 09:23:57;;;;;;;8.02;6.72;;;;;;;12.99;100.00;97679.50;6145941;23;20013;-81
2022/03/13 09:26:23;;;;;;;11.38;7.43;;;;;;;13.10;100.00;97685.72;6166259;23;20017;-81
2022/03/13 09:28:49;;;;;;;9.13;7.15;;;;;;;12.91;100.00;97686.00;6164782;23;20443;-82
2022/03/13 09:31:18;;;;;;;8.73;6.55;;;;;;;13.14;100.00;97689.44;6164084;23;20095;-81
2022/03/13 09:33:50;;;;;;;8.23;6.50;;;;;;;12.98;100.00;97683.19;6172787;23;20423;-80
2022/03/13 09:36:15;;;;;;;12.18;6.72;;;;;;;13.48;100.00;97665.63;6167097;23;20056;-80
2022/03/13 09:38:44;;;;;;;9.18;6.13;;;;;;;13.64;100.00;97689.53;6168272;23;20313;-80
2022/03/13 09:41:11;;;;;;;7.30;6.10;;;;;;;13.51;100.00;97659.09;6143240;23;20013;-83
2022/03/13 09:43:38;;;;;;;8.48;5.93;;;;;;;13.65;100.00;97681.34;6170409;23;20033;-85
2022/03/13 09:46:05;;;;;;;6.55;5.88;;;;;;;13.54;100.00;97680.44;6196954;23;20053;-84
2022/03/13 09:48:35;;;;;;;7.50;6.18;;;;;;;13.43;100.00;97674.28;6189114;23;20436;-83
2022/03/13 09:51:04;;;;;;;7.57;5.20;;;;;;;13.61;100.00;97690.03;6137060;23;20036;-85
2022/03/13 09:53:37;;;;;;;7.38;5.30;;;;;;;13.76;100.00;97711.28;6136238;23;20360;-85
2022/03/13 09:56:05;;;;;;;10.65;5.10;;;;;;;13.81;100.00;97721.88;6160610;23;20036;-85
2022/03/13 09:58:31;;;;;;;9.38;4.88;;;;;;;13.32;100.00;97698.09;6161972;23;20005;-84
2022/03/13 10:01:02;;;;;;;11.63;4.43;;;;;;;13.55;100.00;97703.13;6137063;23;20088;-84
2022/03/13 10:03:28;;;;;;;6.93;4.40;;;;;;;14.00;100.00;97734.72;6187081;23;20497;-84
2022/03/13 10:05:55;;;;;;;8.70;4.47;;;;;;;14.17;100.00;97707.44;6159566;23;20009;-83
2022/03/13 10:08:27;;;;;;;8.73;3.67;;;;;;;14.02;100.00;97705.44;6133166;23;20028;-82
2022/03/13 10:10:53;;;;;;;5.95;3.63;;;;;;;14.25;100.00;97717.53;6159082;23;20009;-82
2022/03/13 10:13:42;;;;;;;12.02;3.95;;;;;;;14.47;100.00;97727.22;6135365;23;20435;-84
2022/03/13 10:16:15;;;;;;;6.45;4.18;;;;;;;14.10;100.00;97700.50;6159495;23;20112;-82
2022/03/13 10:18:41;;;;;;;8.60;4.47;;;;;;;14.11;100.00;97725.06;6159651;23;20005;-82
2022/03/13 10:21:12;;;;;;;6.00;3.47;;;;;;;14.47;100.00;97721.94;6135161;23;20071;-83
2022/03/13 10:23:41;;;;;;;5.90;3.30;;;;;;;14.17;100.00;97725.91;6160290;23;20013;-82
2022/03/13 10:26:07;;;;;;;5.85;3.25;;;;;;;14.32;100.00;97710.19;6161597;23;20023;-86
2022/03/13 10:28:36;;;;;;;9.55;3.55;;;;;;;13.99;100.00;97696.22;6137104;23;20009;-86
2022/03/13 10:31:01;;;;;;;7.78;3.92;;;;;;;14.49;100.00;97736.47;6136855;23;20092;-87
2022/03/13 10:33:42;;;;;;;10.90;3.50;;;;;;;14.49;100.00;97740.94;6144034;23;20368;-83
2022/03/13 10:36:17;;;;;;;8.38;3.38;;;;;;;14.21;100.00;97740.19;6139335;23;20024;-85
2022/03/13 10:38:45;;;;;;;12.65;3.53;;;;;;;14.40;100.00;97736.16;6138894;23;20317;-82
2022/03/13 10:41:12;;;;;;;8.25;3.03;;;;;;;14.52;100.00;97735.97;6138062;23;20016;-84
2022/03/13 10:43:56;;;;;;;12.32;3.13;;;;;;;14.78;100.00;97730.88;6162326;23;20028;-84
2022/03/13 10:46:34;;;;;;;10.68;3.45;;;;;;;14.81;98.87;97732.25;6162565;23;20011;-85
2022/03/13 10:49:00;;;;;;;11.80;3.15;;;;;;;14.10;100.00;97734.81;6162164;23;20009;-85
2022/03/13 10:51:34;;;;;;;11.90;3.72;;;;;;;13.96;100.00;97728.38;6151571;23;20017;-85
2022/03/13 10:54:02;;;;;;;7.65;2.95;;;;;;;14.06;100.00;97736.38;6189101;23;20017;-85
2022/03/13 10:56:28;;;;;;;7.88;2.90;;;;;;;14.17;100.00;97739.13;6141245;23;20459;-85
2022/03/13 10:58:59;;;;;;;7.68;2.95;;;;;;;14.11;100.00;97752.22;6163962;23;20012;-84
2022/03/13 11:01:31;;;;;;;9.52;3.60;;;;;;;14.28;100.00;97740.78;6141662;23;20013;-84
2022/03/13 11:04:06;;;;;;;13.73;3.75;;;;;;;14.23;100.00;97723.06;6167857;23;20021;-83
2022/03/13 11:06:43;;;;;;;13.27;4.20;;;;;;;14.39;100.00;97736.38;6189465;23;20009;-84
2022/03/13 11:09:09;;;;;;;9.02;3.10;;;;;;;14.30;99.02;97704.38;6188556;23;20403;-84
2022/03/13 11:11:35;;;;;;;10.80;2.72;;;;;;;14.77;98.33;97744.38;6188135;23;20035;-86
2022/03/13 11:14:06;;;;;;;8.40;3.08;;;;;;;14.51;98.35;97728.28;6142364;23;20035;-86
2022/03/13 11:16:32;;;;;;;7.43;2.90;;;;;;;14.87;98.20;97749.72;6117495;23;20017;-83
2022/03/13 11:19:05;;;;;;;11.80;2.67;;;;;;;14.99;96.61;97745.03;6136287;23;20313;-83